Archimede — IXZR — position and weather

sailwx.info

Track history (hours):
 
Tides and Currents Weather Stations Pressure Air Temp Water Temp Dewpoint Dewpoint Depression Visibility Wind Speed Wind Dir Waves Ship Positions

Archimede

Last reported at 2017-Jun-28 21:00 UTC. Time now 2017-Jun-28 21:02 UTC.
Position N 38°13' E 015°38'.

; draft 3 m.

Type: Passenger vessel. MMSI: 247054700.

Date/timePositionNaut miles runAvg speedWind from/ knotsBaromVisibWave heightAir tempDewpointWater temp
2017-Jun-28 21:00N 38°13' E 015°38'2 3.2
2017-Jun-28 20:15N 38°13' E 015°35'2 9.7
2017-Jun-28 20:00N 38°13' E 015°38'2 4.2
2017-Jun-28 19:30N 38°12' E 015°36'1 1.7
2017-Jun-28 18:56N 38°13' E 015°35'3 6.3
2017-Jun-28 18:30N 38°13' E 015°38'3 3.5
2017-Jun-28 17:38N 38°13' E 015°34'212.2
2017-Jun-28 17:30N 38°13' E 015°36'1 2.6
2017-Jun-28 17:00N 38°13' E 015°38'3 4.1
2017-Jun-28 16:18N 38°13' E 015°34'310.5
2017-Jun-28 16:00N 38°13' E 015°38'3 4.7
2017-Jun-28 15:24N 38°13' E 015°34'0 0.4
2017-Jun-28 14:56N 38°13' E 015°34'0 0.1
2017-Jun-28 13:38N 38°13' E 015°34'213.4
2017-Jun-28 13:28N 38°14' E 015°37'1 2.0
2017-Jun-28 13:00N 38°13' E 015°37'3 5.8
2017-Jun-28 12:30N 38°13' E 015°34'3 6.7
2017-Jun-28 12:00N 38°13' E 015°38'2 3.7
2017-Jun-28 11:30N 38°13' E 015°36'2 3.2
2017-Jun-28 11:00N 38°13' E 015°34'3 6.8
2017-Jun-28 10:31N 38°13' E 015°38'3 6.6
2017-Jun-28 10:01N 38°13' E 015°34'1 2.8
2017-Jun-28 09:30N 38°13' E 015°35'2 3.9
2017-Jun-28 09:00N 38°13' E 015°38'3 6.7
2017-Jun-28 08:31N 38°13' E 015°34'3 6.7
2017-Jun-28 08:01N 38°13' E 015°38'2 3.4
2017-Jun-28 07:30N 38°12' E 015°36'2 3.7
2017-Jun-28 07:00N 38°13' E 015°34'3 6.8
2017-Jun-28 06:31N 38°13' E 015°38'3 5.2
2017-Jun-28 05:52N 38°13' E 015°34'2 4.9
2017-Jun-28 05:31N 38°13' E 015°36'2 3.5
2017-Jun-28 05:01N 38°13' E 015°38'3 6.7
2017-Jun-28 04:31N 38°13' E 015°34'3 6.7
2017-Jun-28 04:01N 38°13' E 015°38'2 3.6
2017-Jun-28 03:31N 38°13' E 015°36'2 3.3
2017-Jun-28 03:01N 38°13' E 015°34'3 6.7
2017-Jun-28 02:31N 38°13' E 015°38'3 6.7
2017-Jun-28 02:01N 38°13' E 015°34'2 3.0
2017-Jun-28 01:31N 38°13' E 015°35'2 3.5
2017-Jun-28 01:00N 38°13' E 015°38'3 6.1
2017-Jun-28 00:30N 38°13' E 015°34'3 6.8
2017-Jun-28 00:00N 38°13' E 015°38'2 4.1
2017-Jun-27 23:30N 38°12' E 015°36'2 3.0
2017-Jun-27 23:00N 38°13' E 015°34'3 6.7
2017-Jun-27 22:30N 38°13' E 015°38'3 6.7
2017-Jun-27 22:00N 38°13' E 015°34'2 4.0
2017-Jun-27 21:30N 38°13' E 015°36'1 2.1
2017-Jun-27 21:00N 38°13' E 015°37'3 5.9
2017-Jun-27 20:30N 38°13' E 015°34'3 6.7
2017-Jun-27 20:00N 38°13' E 015°38'2 4.1
2017-Jun-27 19:30N 38°13' E 015°35'1 2.6
2017-Jun-27 19:00N 38°13' E 015°34'3 6.6
2017-Jun-27 18:30N 38°13' E 015°38'3 6.7
2017-Jun-27 18:00N 38°13' E 015°34'2 3.9
2017-Jun-27 17:30N 38°14' E 015°36'2 3.1
2017-Jun-27 17:00N 38°13' E 015°38'3 6.7
2017-Jun-27 16:30N 38°13' E 015°34'3 6.5
2017-Jun-27 16:00N 38°13' E 015°38'2 3.8
2017-Jun-27 15:30N 38°12' E 015°36'2 3.0
2017-Jun-27 15:00N 38°13' E 015°34'0 0.0
2017-Jun-27 14:00N 38°13' E 015°34'1 2.8
2017-Jun-27 13:30N 38°13' E 015°35'2 4.1
2017-Jun-27 13:00N 38°13' E 015°38'3 6.7
2017-Jun-27 12:30N 38°13' E 015°34'3 6.7
2017-Jun-27 12:00N 38°13' E 015°38'3 5.3
2017-Jun-27 11:30N 38°12' E 015°35'1 1.2
2017-Jun-27 11:01N 38°13' E 015°35'2 4.5
2017-Jun-27 10:30N 38°13' E 015°38'3 6.7
2017-Jun-27 10:00N 38°13' E 015°34'0 0.1
2017-Jun-27 09:30N 38°13' E 015°34'0 0.2
2017-Jun-27 09:00N 38°13' E 015°34'0 0.0
2017-Jun-27 08:30N 38°13' E 015°34'3 6.8
2017-Jun-27 08:00N 38°13' E 015°38'2 3.6
2017-Jun-27 07:30N 38°13' E 015°36'2 3.3
2017-Jun-27 07:00N 38°13' E 015°34'3 6.7
2017-Jun-27 06:30N 38°13' E 015°38'3 6.7
2017-Jun-27 06:00N 38°13' E 015°34'2 3.9
2017-Jun-27 05:30N 38°13' E 015°36'1 2.9
2017-Jun-27 05:00N 38°13' E 015°38'3 6.7
2017-Jun-27 04:30N 38°13' E 015°34'3 6.8
2017-Jun-27 04:00N 38°13' E 015°38'2 3.6
2017-Jun-27 03:30N 38°13' E 015°36'2 3.5
2017-Jun-27 03:00N 38°13' E 015°34'3 6.8
2017-Jun-27 02:31N 38°13' E 015°38'3 6.7
2017-Jun-27 02:00N 38°13' E 015°34'1 2.7
2017-Jun-27 01:30N 38°13' E 015°35'2 3.7
2017-Jun-27 01:00N 38°13' E 015°38'3 6.5
2017-Jun-27 00:30N 38°13' E 015°34'3 6.7
2017-Jun-27 00:00N 38°13' E 015°38'2 4.1
2017-Jun-26 23:30N 38°12' E 015°36'2 3.0
2017-Jun-26 23:00N 38°13' E 015°34'3 6.7
2017-Jun-26 22:30N 38°13' E 015°38'3 6.7
2017-Jun-26 22:00N 38°13' E 015°34'2 3.2
2017-Jun-26 21:31N 38°13' E 015°36'2 3.1
2017-Jun-26 21:00N 38°13' E 015°38'3 6.1
2017-Jun-26 20:30N 38°13' E 015°34'3 6.7
2017-Jun-26 20:00N 38°13' E 015°38'2 3.5
2017-Jun-26 19:30N 38°12' E 015°36'2 3.4
2017-Jun-26 19:00N 38°13' E 015°34'3 6.6
2017-Jun-26 18:30N 38°13' E 015°38'3 6.7
2017-Jun-26 18:00N 38°13' E 015°34'2 3.5
2017-Jun-26 17:30N 38°13' E 015°36'2 3.2
2017-Jun-26 17:00N 38°13' E 015°38'3 6.6
2017-Jun-26 16:30N 38°13' E 015°34'3 6.7
2017-Jun-26 16:00N 38°13' E 015°38'2 3.9
2017-Jun-26 15:30N 38°12' E 015°36'1 3.0
2017-Jun-26 15:00N 38°13' E 015°34'0 0.1
2017-Jun-26 14:00N 38°13' E 015°34'2 3.8
2017-Jun-26 13:30N 38°14' E 015°36'1 3.0
2017-Jun-26 13:00N 38°13' E 015°38'3 6.0
2017-Jun-26 12:30N 38°13' E 015°34'3 6.7
2017-Jun-26 12:00N 38°13' E 015°38'3 6.7
2017-Jun-26 11:30N 38°13' E 015°34'3 6.6
2017-Jun-26 11:00N 38°13' E 015°38'2 4.9
2017-Jun-26 10:30N 38°13' E 015°35'1 1.9
2017-Jun-26 10:00N 38°13' E 015°34'1 1.8
2017-Jun-26 09:31N 38°13' E 015°35'2 4.3
2017-Jun-26 09:00N 38°13' E 015°38'3 3.9
2017-Jun-26 08:16N 38°13' E 015°34'311.7
2017-Jun-26 08:00N 38°13' E 015°38'2 3.5
2017-Jun-26 07:30N 38°13' E 015°36'1 2.6
2017-Jun-26 06:59N 38°13' E 015°34'3 6.2
2017-Jun-26 06:30N 38°13' E 015°38'3 3.0
2017-Jun-26 05:35N 38°13' E 015°34'111.7
2017-Jun-26 05:30N 38°13' E 015°36'2 3.5
2017-Jun-26 05:00N 38°13' E 015°38'3 3.7
2017-Jun-26 04:15N 38°13' E 015°34'311.3
2017-Jun-26 04:00N 38°13' E 015°38'2 3.9
2017-Jun-26 03:30N 38°12' E 015°36'1 2.4
2017-Jun-26 02:57N 38°13' E 015°34'3 7.2
2017-Jun-26 02:30N 38°13' E 015°38'3 3.6
2017-Jun-26 01:37N 38°13' E 015°34'212.7
2017-Jun-26 01:28N 38°13' E 015°36'1 3.1
2017-Jun-26 01:00N 38°13' E 015°38'3 4.2
2017-Jun-26 00:17N 38°13' E 015°34'311.9
2017-Jun-26 00:00N 38°13' E 015°38'2 4.3
2017-Jun-25 23:27N 38°13' E 015°35'1 1.5
2017-Jun-25 22:55N 38°13' E 015°34'3 7.6
2017-Jun-25 22:30N 38°13' E 015°38'3 3.9
2017-Jun-25 21:40N 38°13' E 015°34'213.7
2017-Jun-25 21:30N 38°13' E 015°37'1 1.3
2017-Jun-25 21:00N 38°13' E 015°37'3 3.5
2017-Jun-25 20:17N 38°13' E 015°34'311.0
2017-Jun-25 20:00N 38°13' E 015°38'2 3.7
2017-Jun-25 19:30N 38°12' E 015°36'1 2.6
2017-Jun-25 18:58N 38°13' E 015°34'3 6.8
2017-Jun-25 18:30N 38°13' E 015°38'3 3.8
2017-Jun-25 17:38N 38°13' E 015°34'211.6
2017-Jun-25 17:30N 38°13' E 015°36'2 3.2
2017-Jun-25 17:00N 38°13' E 015°38'3 4.5
2017-Jun-25 16:18N 38°13' E 015°34'310.7
2017-Jun-25 16:00N 38°13' E 015°38'2 3.7
2017-Jun-25 15:30N 38°12' E 015°36'1 2.5
2017-Jun-25 14:57N 38°13' E 015°34'3 7.2
2017-Jun-25 14:30N 38°13' E 015°38'3 1.4
2017-Jun-25 12:17N 38°13' E 015°34'311.6
2017-Jun-25 12:00N 38°13' E 015°38'2 3.8
2017-Jun-25 11:30N 38°13' E 015°36'1 1.7
2017-Jun-25 10:53N 38°13' E 015°34'3 7.3
2017-Jun-25 10:30N 38°13' E 015°38'3 3.6
2017-Jun-25 09:37N 38°13' E 015°34'214.6
2017-Jun-25 09:30N 38°13' E 015°36'1 2.1
2017-Jun-25 09:00N 38°13' E 015°37'2 3.4
2017-Jun-25 08:17N 38°13' E 015°34'311.5
2017-Jun-25 08:01N 38°13' E 015°38'2 3.8
2017-Jun-25 07:30N 38°12' E 015°36'2 2.9
2017-Jun-25 06:59N 38°13' E 015°34'3 6.7
2017-Jun-25 06:30N 38°13' E 015°38'3 3.9
2017-Jun-25 05:40N 38°13' E 015°34'211.6
2017-Jun-25 05:29N 38°13' E 015°36'1 2.1
2017-Jun-25 05:00N 38°13' E 015°38'3 4.6
2017-Jun-25 04:21N 38°13' E 015°34'3 9.7
2017-Jun-25 04:00N 38°13' E 015°38'3 4.6
2017-Jun-25 03:26N 38°13' E 015°35'1 1.3
2017-Jun-25 02:58N 38°13' E 015°34'3 6.8
2017-Jun-25 02:30N 38°13' E 015°38'3 3.9
2017-Jun-25 01:39N 38°13' E 015°34'212.2
2017-Jun-25 01:30N 38°14' E 015°36'2 3.4
2017-Jun-25 01:00N 38°13' E 015°38'3 4.0
2017-Jun-25 00:15N 38°13' E 015°34'313.4
2017-Jun-25 00:00N 38°13' E 015°38'3 2.4
2017-Jun-24 22:52N 38°13' E 015°34'3 7.3
2017-Jun-24 22:30N 38°13' E 015°38'3 3.3
2017-Jun-24 21:34N 38°13' E 015°34'115.9
2017-Jun-24 21:30N 38°13' E 015°35'2 3.1
2017-Jun-24 21:00N 38°13' E 015°37'3 5.7
2017-Jun-24 20:30N 38°13' E 015°34'3 6.7
2017-Jun-24 20:00N 38°13' E 015°38'2 3.3
2017-Jun-24 19:30N 38°13' E 015°36'2 3.6
2017-Jun-24 19:00N 38°13' E 015°34'3 6.7
2017-Jun-24 18:30N 38°13' E 015°38'3 6.7
2017-Jun-24 18:00N 38°13' E 015°34'2 3.5
2017-Jun-24 17:30N 38°13' E 015°36'2 3.1
2017-Jun-24 17:00N 38°13' E 015°38'3 6.6
2017-Jun-24 16:30N 38°13' E 015°34'3 6.8
2017-Jun-24 16:00N 38°13' E 015°38'2 3.6
2017-Jun-24 15:30N 38°12' E 015°36'1 3.0
2017-Jun-24 15:00N 38°13' E 015°34'0 0.3
2017-Jun-24 14:00N 38°13' E 015°34'1 3.0
2017-Jun-24 13:30N 38°13' E 015°36'2 3.6
2017-Jun-24 13:00N 38°13' E 015°38'3 6.6
2017-Jun-24 12:30N 38°13' E 015°34'3 6.7
2017-Jun-24 12:00N 38°13' E 015°38'2 3.5
2017-Jun-24 11:30N 38°13' E 015°36'2 3.3
2017-Jun-24 11:00N 38°13' E 015°34'3 6.7
2017-Jun-24 10:30N 38°13' E 015°38'3 6.5
2017-Jun-24 10:00N 38°13' E 015°34'1 2.4
2017-Jun-24 09:30N 38°13' E 015°35'2 3.4
2017-Jun-24 09:00N 38°13' E 015°37'3 5.9
2017-Jun-24 08:31N 38°13' E 015°34'3 6.7
2017-Jun-24 08:01N 38°13' E 015°38'2 4.0
2017-Jun-24 07:31N 38°12' E 015°36'2 3.0
2017-Jun-24 07:01N 38°13' E 015°34'3 6.7
2017-Jun-24 06:30N 38°13' E 015°38'3 6.7
2017-Jun-24 06:00N 38°13' E 015°34'2 3.3
2017-Jun-24 05:31N 38°13' E 015°36'2 3.4
2017-Jun-24 05:01N 38°13' E 015°38'3 6.6
2017-Jun-24 04:31N 38°13' E 015°34'3 6.7
2017-Jun-24 04:01N 38°13' E 015°38'2 3.2
2017-Jun-24 03:30N 38°13' E 015°36'2 2.9
2017-Jun-24 02:59N 38°13' E 015°34'3 6.7
2017-Jun-24 02:31N 38°13' E 015°38'3 3.5
2017-Jun-24 01:37N 38°13' E 015°34'212.2
2017-Jun-24 01:29N 38°13' E 015°36'2 3.3
2017-Jun-24 01:01N 38°13' E 015°38'3 3.9
2017-Jun-24 00:17N 38°13' E 015°34'310.5
2017-Jun-24 00:00N 38°13' E 015°38'2 3.9
2017-Jun-23 23:30N 38°12' E 015°36'1 2.5
2017-Jun-23 22:56N 38°13' E 015°34'3 7.7
2017-Jun-23 22:30N 38°13' E 015°38'3 3.3
2017-Jun-23 21:35N 38°13' E 015°34'115.5
2017-Jun-23 21:30N 38°13' E 015°35'2 3.1
2017-Jun-23 21:00N 38°13' E 015°37'3 3.5
2017-Jun-23 20:15N 38°13' E 015°34'312.6
2017-Jun-23 20:00N 38°13' E 015°38'2 3.8
2017-Jun-23 19:30N 38°12' E 015°36'1 2.3
2017-Jun-23 18:57N 38°13' E 015°34'3 6.8
2017-Jun-23 18:30N 38°13' E 015°38'3 3.3
2017-Jun-23 17:36N 38°13' E 015°34'112.8
2017-Jun-23 17:30N 38°13' E 015°36'2 3.2
2017-Jun-23 17:00N 38°13' E 015°38'3 3.9
2017-Jun-23 16:18N 38°13' E 015°34'310.1
2017-Jun-23 16:00N 38°13' E 015°38'2 4.3
2017-Jun-23 15:30N 38°13' E 015°35'1 1.5
2017-Jun-23 14:58N 38°13' E 015°34'0 0.2
2017-Jun-23 13:36N 38°13' E 015°34'211.9
2017-Jun-23 13:28N 38°13' E 015°36'1 2.6
2017-Jun-23 13:00N 38°13' E 015°38'3 3.7
2017-Jun-23 12:17N 38°13' E 015°34'310.1
2017-Jun-23 12:00N 38°13' E 015°38'3 4.8
2017-Jun-23 11:28N 38°12' E 015°35'1 1.1
2017-Jun-23 10:56N 38°13' E 015°34'3 6.6
2017-Jun-23 10:30N 38°13' E 015°38'3 3.6
2017-Jun-23 09:38N 38°13' E 015°34'212.9
2017-Jun-23 09:30N 38°13' E 015°36'1 2.4
2017-Jun-23 09:00N 38°13' E 015°38'3 0.4
2017-Jun-23 01:24N 38°13' E 015°34'3 7.3
2017-Jun-23 01:00N 38°13' E 015°38'3 4.1
2017-Jun-23 00:17N 38°13' E 015°34'310.9
2017-Jun-23 00:00N 38°13' E 015°38'2 4.0
2017-Jun-22 23:30N 38°12' E 015°36'1 2.9
2017-Jun-22 22:59N 38°13' E 015°34'3 6.7
2017-Jun-22 22:30N 38°13' E 015°38'3 3.3
2017-Jun-22 21:36N 38°13' E 015°34'115.5
2017-Jun-22 21:30N 38°13' E 015°36'1 2.9
2017-Jun-22 21:00N 38°13' E 015°38'3 4.0
2017-Jun-22 20:18N 38°13' E 015°34'3 9.5
2017-Jun-22 20:00N 38°13' E 015°38'2 4.1
2017-Jun-22 19:30N 38°12' E 015°36'1 2.3
2017-Jun-22 18:57N 38°13' E 015°34'3 7.0
2017-Jun-22 18:31N 38°13' E 015°38'3 3.1
2017-Jun-22 17:35N 38°13' E 015°34'212.3
2017-Jun-22 17:24N 38°13' E 015°37'1 1.3
2017-Jun-22 17:00N 38°13' E 015°38'3 3.7
2017-Jun-22 16:15N 38°13' E 015°34'311.6
2017-Jun-22 16:00N 38°13' E 015°38'2 3.4
2017-Jun-22 15:30N 38°13' E 015°36'1 2.3
2017-Jun-22 14:58N 38°13' E 015°34'3 6.3
2017-Jun-22 14:30N 38°13' E 015°38'1 0.7
2017-Jun-22 13:25N 38°13' E 015°37'1 1.6
2017-Jun-22 13:00N 38°13' E 015°38'3 4.0
2017-Jun-22 12:17N 38°13' E 015°34'310.5
2017-Jun-22 12:01N 38°13' E 015°38'2 4.5
2017-Jun-22 11:28N 38°13' E 015°35'1 1.4
2017-Jun-22 10:58N 38°13' E 015°34'3 6.7
2017-Jun-22 10:30N 38°13' E 015°38'3 3.4
2017-Jun-22 09:36N 38°13' E 015°34'113.1
2017-Jun-22 09:30N 38°13' E 015°35'2 3.4
2017-Jun-22 09:00N 38°13' E 015°38'3 3.7
2017-Jun-22 08:15N 38°13' E 015°34'312.1
2017-Jun-22 08:00N 38°13' E 015°38'3 4.5
2017-Jun-22 07:27N 38°13' E 015°35'1 1.4
2017-Jun-22 06:57N 38°13' E 015°34'3 7.1
2017-Jun-22 06:30N 38°13' E 015°38'3 2.9
2017-Jun-22 05:37N 38°13' E 015°35'112.9
2017-Jun-22 05:30N 38°13' E 015°36'1 2.5
2017-Jun-22 05:00N 38°13' E 015°38'2 3.1
2017-Jun-22 04:14N 38°13' E 015°35'210.9
2017-Jun-22 04:00N 38°13' E 015°38'2 2.1
2017-Jun-22 02:55N 38°13' E 015°35'2 5.5
2017-Jun-22 02:30N 38°13' E 015°38'3 3.2
2017-Jun-22 01:37N 38°13' E 015°34'212.2
2017-Jun-22 01:28N 38°13' E 015°36'1 2.4
2017-Jun-22 01:00N 38°13' E 015°38'3 4.0
2017-Jun-22 00:18N 38°13' E 015°34'3 9.7
2017-Jun-22 00:00N 38°13' E 015°38'2 3.9
2017-Jun-21 23:30N 38°12' E 015°36'1 2.2
2017-Jun-21 22:56N 38°13' E 015°34'3 6.5
2017-Jun-21 22:30N 38°13' E 015°38'3 3.4
2017-Jun-21 21:36N 38°13' E 015°34'113.4
2017-Jun-21 21:30N 38°13' E 015°36'1 2.3
2017-Jun-21 20:57N 38°13' E 015°37'3 3.8
2017-Jun-21 20:16N 38°13' E 015°34'311.7
2017-Jun-21 20:00N 38°13' E 015°38'2 4.1
2017-Jun-21 19:30N 38°12' E 015°36'1 2.1
2017-Jun-21 18:56N 38°13' E 015°34'3 6.7
2017-Jun-21 18:30N 38°13' E 015°38'3 3.1
2017-Jun-21 17:36N 38°13' E 015°34'112.3
2017-Jun-21 17:30N 38°13' E 015°36'1 2.3
2017-Jun-21 17:00N 38°13' E 015°37'3 4.0
2017-Jun-21 16:19N 38°13' E 015°34'310.7
2017-Jun-21 16:00N 38°13' E 015°38'3 5.3
2017-Jun-21 15:24N 38°13' E 015°34'0 0.6
2017-Jun-21 14:58N 38°13' E 015°34'0 0.1
2017-Jun-21 13:38N 38°13' E 015°34'211.6
2017-Jun-21 13:30N 38°13' E 015°36'0 0.1
2017-Jun-21 10:49N 38°13' E 015°36'1 3.8
2017-Jun-21 10:29N 38°13' E 015°38'3 3.1
2017-Jun-21 09:35N 38°13' E 015°34'212.2
2017-Jun-21 09:26N 38°13' E 015°36'1 2.2
2017-Jun-21 09:00N 38°13' E 015°38'3 3.7
2017-Jun-21 08:15N 38°13' E 015°34'311.5
2017-Jun-21 08:00N 38°13' E 015°38'2 3.4
2017-Jun-21 07:30N 38°12' E 015°36'1 2.0
2017-Jun-21 06:54N 38°13' E 015°35'3 6.9
2017-Jun-21 06:31N 38°13' E 015°38'3 3.8
2017-Jun-21 05:40N 38°13' E 015°34'2 1.3
2017-Jun-21 04:08N 38°13' E 015°36'110.4
2017-Jun-21 04:00N 38°13' E 015°38'2 3.4
2017-Jun-21 03:30N 38°12' E 015°36'1 2.8
2017-Jun-21 02:59N 38°13' E 015°34'3 6.3
2017-Jun-21 02:30N 38°13' E 015°38'3 4.0
2017-Jun-21 01:40N 38°13' E 015°34'211.0
2017-Jun-21 01:30N 38°13' E 015°36'1 2.9
2017-Jun-21 01:00N 38°13' E 015°38'3 5.0
2017-Jun-21 00:23N 38°13' E 015°34'3 8.2
2017-Jun-21 00:01N 38°13' E 015°38'2 3.4
2017-Jun-20 23:30N 38°12' E 015°36'2 2.9
2017-Jun-20 22:57N 38°13' E 015°34'3 7.0
2017-Jun-20 22:30N 38°13' E 015°38'3 3.9
2017-Jun-20 21:40N 38°13' E 015°34'212.2
2017-Jun-20 21:28N 38°14' E 015°36'1 3.2
2017-Jun-20 21:01N 38°13' E 015°38'3 4.5
2017-Jun-20 20:18N 38°13' E 015°34'311.3
2017-Jun-20 20:01N 38°13' E 015°38'2 3.7
2017-Jun-20 19:31N 38°12' E 015°36'2 2.9
2017-Jun-20 18:59N 38°13' E 015°34'3 6.9
2017-Jun-20 18:30N 38°13' E 015°38'3 3.9
2017-Jun-20 17:40N 38°13' E 015°34'212.1
2017-Jun-20 17:30N 38°14' E 015°36'1 2.9
2017-Jun-20 17:00N 38°13' E 015°38'3 4.3
2017-Jun-20 16:16N 38°13' E 015°34'311.9
2017-Jun-20 16:00N 38°13' E 015°38'2 4.1
2017-Jun-20 15:30N 38°12' E 015°36'1 2.2
2017-Jun-20 15:00N 38°13' E 015°34'0 0.2
2017-Jun-20 13:39N 38°13' E 015°34'212.1
2017-Jun-20 13:30N 38°13' E 015°36'2 3.0
2017-Jun-20 13:00N 38°13' E 015°38'3 4.4
2017-Jun-20 12:18N 38°13' E 015°34'310.4
2017-Jun-20 12:00N 38°13' E 015°38'2 3.8
2017-Jun-20 11:30N 38°12' E 015°36'1 2.7
2017-Jun-20 10:59N 38°13' E 015°34'3 6.7
2017-Jun-20 10:30N 38°13' E 015°38'3 2.6
2017-Jun-20 09:32N 38°13' E 015°35'013.5
2017-Jun-20 09:30N 38°13' E 015°35'2 4.1
2017-Jun-20 09:00N 38°13' E 015°38'3 4.0
2017-Jun-20 08:16N 38°13' E 015°34'311.5
2017-Jun-20 08:00N 38°13' E 015°38'2 3.7
2017-Jun-20 07:30N 38°12' E 015°36'1 1.9
2017-Jun-20 06:54N 38°13' E 015°35'3 7.1
2017-Jun-20 06:30N 38°13' E 015°38'3 3.8
2017-Jun-20 05:38N 38°13' E 015°34'211.9
2017-Jun-20 05:30N 38°13' E 015°36'1 3.0
2017-Jun-20 05:00N 38°13' E 015°38'3 4.0
2017-Jun-20 04:16N 38°13' E 015°34'311.6
2017-Jun-20 04:00N 38°13' E 015°38'2 3.7
2017-Jun-20 03:30N 38°12' E 015°36'1 2.5
2017-Jun-20 02:58N 38°13' E 015°34'3 6.6
2017-Jun-20 02:30N 38°13' E 015°38'3 1.0
2017-Jun-19 23:00N 38°13' E 015°34'3 6.7
2017-Jun-19 22:30N 38°13' E 015°38'3 3.4
2017-Jun-19 21:36N 38°13' E 015°34'113.1
2017-Jun-19 21:30N 38°13' E 015°36'2 3.5
2017-Jun-19 21:00N 38°13' E 015°38'3 4.3
2017-Jun-19 20:17N 38°13' E 015°34'311.6
2017-Jun-19 20:00N 38°13' E 015°38'2 4.0
2017-Jun-19 19:30N 38°12' E 015°36'1 2.4
2017-Jun-19 18:57N 38°13' E 015°34'3 6.8
2017-Jun-19 18:30N 38°13' E 015°38'3 3.5
2017-Jun-19 17:36N 38°13' E 015°34'112.9
2017-Jun-19 17:30N 38°13' E 015°36'2 3.6
2017-Jun-19 17:00N 38°13' E 015°38'3 4.7
2017-Jun-19 16:21N 38°13' E 015°34'3 9.4
2017-Jun-19 16:00N 38°13' E 015°38'2 4.2
2017-Jun-19 15:30N 38°13' E 015°35'1 1.3
2017-Jun-19 14:55N 38°13' E 015°34'3 6.8
2017-Jun-19 14:30N 38°13' E 015°38'3 1.5
2017-Jun-19 12:43N 38°13' E 015°34'2 8.5
2017-Jun-19 12:29N 38°13' E 015°37'1 1.6
2017-Jun-19 11:58N 38°13' E 015°38'3 0.6
2017-Jun-19 06:47N 38°13' E 015°34'0 0.8
2017-Jun-19 06:30N 38°12' E 015°34'0 0.0
2017-Jun-19 05:11N 38°12' E 015°34'0 0.0
2017-Jun-19 04:59N 38°12' E 015°34'0 0.0
2017-Jun-19 04:29N 38°12' E 015°34'0 0.0
2017-Jun-19 03:59N 38°12' E 015°34'0 0.0
2017-Jun-19 03:29N 38°12' E 015°34'0 0.0
2017-Jun-19 02:41N 38°12' E 015°34'0 0.0
2017-Jun-19 02:29N 38°12' E 015°34'0 0.0
2017-Jun-19 01:59N 38°12' E 015°34'0 0.0
2017-Jun-19 01:29N 38°12' E 015°34'0 0.0
2017-Jun-19 00:59N 38°12' E 015°34'0 0.0
2017-Jun-19 00:29N 38°12' E 015°34'0 0.0
2017-Jun-18 23:53N 38°12' E 015°34'0 0.0
2017-Jun-18 23:17N 38°12' E 015°34'0 0.0
2017-Jun-18 22:53N 38°12' E 015°34'0 0.0
2017-Jun-18 22:05N 38°12' E 015°34'0 0.0
2017-Jun-18 21:59N 38°12' E 015°34'0 0.0
2017-Jun-18 21:23N 38°12' E 015°34'  
Track history (hours):
 
Tides and Currents Weather Stations Pressure Air Temp Water Temp Dewpoint Dewpoint Depression Visibility Wind Speed Wind Dir Waves Ship Positions

Archimede

Last reported at 2017-Jun-28 21:00 UTC. Time now 2017-Jun-28 21:02 UTC.
Position N 38°13' E 015°38'.

; draft 3 m.

Type: Passenger vessel. MMSI: 247054700.

Date/timePositionNaut miles runAvg speedWind from/ knotsBaromVisibWave heightAir tempDewpointWater temp
2017-Jun-28 21:00N 38°13' E 015°38'2 3.2
2017-Jun-28 20:15N 38°13' E 015°35'2 9.7
2017-Jun-28 20:00N 38°13' E 015°38'2 4.2
2017-Jun-28 19:30N 38°12' E 015°36'1 1.7
2017-Jun-28 18:56N 38°13' E 015°35'3 6.3
2017-Jun-28 18:30N 38°13' E 015°38'3 3.5
2017-Jun-28 17:38N 38°13' E 015°34'212.2
2017-Jun-28 17:30N 38°13' E 015°36'1 2.6
2017-Jun-28 17:00N 38°13' E 015°38'3 4.1
2017-Jun-28 16:18N 38°13' E 015°34'310.5
2017-Jun-28 16:00N 38°13' E 015°38'3 4.7
2017-Jun-28 15:24N 38°13' E 015°34'0 0.4
2017-Jun-28 14:56N 38°13' E 015°34'0 0.1
2017-Jun-28 13:38N 38°13' E 015°34'213.4
2017-Jun-28 13:28N 38°14' E 015°37'1 2.0
2017-Jun-28 13:00N 38°13' E 015°37'3 5.8
2017-Jun-28 12:30N 38°13' E 015°34'3 6.7
2017-Jun-28 12:00N 38°13' E 015°38'2 3.7
2017-Jun-28 11:30N 38°13' E 015°36'2 3.2
2017-Jun-28 11:00N 38°13' E 015°34'3 6.8
2017-Jun-28 10:31N 38°13' E 015°38'3 6.6
2017-Jun-28 10:01N 38°13' E 015°34'1 2.8
2017-Jun-28 09:30N 38°13' E 015°35'2 3.9
2017-Jun-28 09:00N 38°13' E 015°38'3 6.7
2017-Jun-28 08:31N 38°13' E 015°34'3 6.7
2017-Jun-28 08:01N 38°13' E 015°38'2 3.4
2017-Jun-28 07:30N 38°12' E 015°36'2 3.7
2017-Jun-28 07:00N 38°13' E 015°34'3 6.8
2017-Jun-28 06:31N 38°13' E 015°38'3 5.2
2017-Jun-28 05:52N 38°13' E 015°34'2 4.9
2017-Jun-28 05:31N 38°13' E 015°36'2 3.5
2017-Jun-28 05:01N 38°13' E 015°38'3 6.7
2017-Jun-28 04:31N 38°13' E 015°34'3 6.7
2017-Jun-28 04:01N 38°13' E 015°38'2 3.6
2017-Jun-28 03:31N 38°13' E 015°36'2 3.3
2017-Jun-28 03:01N 38°13' E 015°34'3 6.7
2017-Jun-28 02:31N 38°13' E 015°38'3 6.7
2017-Jun-28 02:01N 38°13' E 015°34'2 3.0
2017-Jun-28 01:31N 38°13' E 015°35'2 3.5
2017-Jun-28 01:00N 38°13' E 015°38'3 6.1
2017-Jun-28 00:30N 38°13' E 015°34'3 6.8
2017-Jun-28 00:00N 38°13' E 015°38'2 4.1
2017-Jun-27 23:30N 38°12' E 015°36'2 3.0
2017-Jun-27 23:00N 38°13' E 015°34'3 6.7
2017-Jun-27 22:30N 38°13' E 015°38'3 6.7
2017-Jun-27 22:00N 38°13' E 015°34'2 4.0
2017-Jun-27 21:30N 38°13' E 015°36'1 2.1
2017-Jun-27 21:00N 38°13' E 015°37'3 5.9
2017-Jun-27 20:30N 38°13' E 015°34'3 6.7
2017-Jun-27 20:00N 38°13' E 015°38'2 4.1
2017-Jun-27 19:30N 38°13' E 015°35'1 2.6
2017-Jun-27 19:00N 38°13' E 015°34'3 6.6
2017-Jun-27 18:30N 38°13' E 015°38'3 6.7
2017-Jun-27 18:00N 38°13' E 015°34'2 3.9
2017-Jun-27 17:30N 38°14' E 015°36'2 3.1
2017-Jun-27 17:00N 38°13' E 015°38'3 6.7
2017-Jun-27 16:30N 38°13' E 015°34'3 6.5
2017-Jun-27 16:00N 38°13' E 015°38'2 3.8
2017-Jun-27 15:30N 38°12' E 015°36'2 3.0
2017-Jun-27 15:00N 38°13' E 015°34'0 0.0
2017-Jun-27 14:00N 38°13' E 015°34'1 2.8
2017-Jun-27 13:30N 38°13' E 015°35'2 4.1
2017-Jun-27 13:00N 38°13' E 015°38'3 6.7
2017-Jun-27 12:30N 38°13' E 015°34'3 6.7
2017-Jun-27 12:00N 38°13' E 015°38'3 5.3
2017-Jun-27 11:30N 38°12' E 015°35'1 1.2
2017-Jun-27 11:01N 38°13' E 015°35'2 4.5
2017-Jun-27 10:30N 38°13' E 015°38'3 6.7
2017-Jun-27 10:00N 38°13' E 015°34'0 0.1
2017-Jun-27 09:30N 38°13' E 015°34'0 0.2
2017-Jun-27 09:00N 38°13' E 015°34'0 0.0
2017-Jun-27 08:30N 38°13' E 015°34'3 6.8
2017-Jun-27 08:00N 38°13' E 015°38'2 3.6
2017-Jun-27 07:30N 38°13' E 015°36'2 3.3
2017-Jun-27 07:00N 38°13' E 015°34'3 6.7
2017-Jun-27 06:30N 38°13' E 015°38'3 6.7
2017-Jun-27 06:00N 38°13' E 015°34'2 3.9
2017-Jun-27 05:30N 38°13' E 015°36'1 2.9
2017-Jun-27 05:00N 38°13' E 015°38'3 6.7
2017-Jun-27 04:30N 38°13' E 015°34'3 6.8
2017-Jun-27 04:00N 38°13' E 015°38'2 3.6
2017-Jun-27 03:30N 38°13' E 015°36'2 3.5
2017-Jun-27 03:00N 38°13' E 015°34'3 6.8
2017-Jun-27 02:31N 38°13' E 015°38'3 6.7
2017-Jun-27 02:00N 38°13' E 015°34'1 2.7
2017-Jun-27 01:30N 38°13' E 015°35'2 3.7
2017-Jun-27 01:00N 38°13' E 015°38'3 6.5
2017-Jun-27 00:30N 38°13' E 015°34'3 6.7
2017-Jun-27 00:00N 38°13' E 015°38'2 4.1
2017-Jun-26 23:30N 38°12' E 015°36'2 3.0
2017-Jun-26 23:00N 38°13' E 015°34'3 6.7
2017-Jun-26 22:30N 38°13' E 015°38'3 6.7
2017-Jun-26 22:00N 38°13' E 015°34'2 3.2
2017-Jun-26 21:31N 38°13' E 015°36'2 3.1
2017-Jun-26 21:00N 38°13' E 015°38'3 6.1
2017-Jun-26 20:30N 38°13' E 015°34'3 6.7
2017-Jun-26 20:00N 38°13' E 015°38'2 3.5
2017-Jun-26 19:30N 38°12' E 015°36'2 3.4
2017-Jun-26 19:00N 38°13' E 015°34'3 6.6
2017-Jun-26 18:30N 38°13' E 015°38'3 6.7
2017-Jun-26 18:00N 38°13' E 015°34'2 3.5
2017-Jun-26 17:30N 38°13' E 015°36'2 3.2
2017-Jun-26 17:00N 38°13' E 015°38'3 6.6
2017-Jun-26 16:30N 38°13' E 015°34'3 6.7
2017-Jun-26 16:00N 38°13' E 015°38'2 3.9
2017-Jun-26 15:30N 38°12' E 015°36'1 3.0
2017-Jun-26 15:00N 38°13' E 015°34'0 0.1
2017-Jun-26 14:00N 38°13' E 015°34'2 3.8
2017-Jun-26 13:30N 38°14' E 015°36'1 3.0
2017-Jun-26 13:00N 38°13' E 015°38'3 6.0
2017-Jun-26 12:30N 38°13' E 015°34'3 6.7
2017-Jun-26 12:00N 38°13' E 015°38'3 6.7
2017-Jun-26 11:30N 38°13' E 015°34'3 6.6
2017-Jun-26 11:00N 38°13' E 015°38'2 4.9
2017-Jun-26 10:30N 38°13' E 015°35'1 1.9
2017-Jun-26 10:00N 38°13' E 015°34'1 1.8
2017-Jun-26 09:31N 38°13' E 015°35'2 4.3
2017-Jun-26 09:00N 38°13' E 015°38'3 3.9
2017-Jun-26 08:16N 38°13' E 015°34'311.7
2017-Jun-26 08:00N 38°13' E 015°38'2 3.5
2017-Jun-26 07:30N 38°13' E 015°36'1 2.6
2017-Jun-26 06:59N 38°13' E 015°34'3 6.2
2017-Jun-26 06:30N 38°13' E 015°38'3 3.0
2017-Jun-26 05:35N 38°13' E 015°34'111.7
2017-Jun-26 05:30N 38°13' E 015°36'2 3.5
2017-Jun-26 05:00N 38°13' E 015°38'3 3.7
2017-Jun-26 04:15N 38°13' E 015°34'311.3
2017-Jun-26 04:00N 38°13' E 015°38'2 3.9
2017-Jun-26 03:30N 38°12' E 015°36'1 2.4
2017-Jun-26 02:57N 38°13' E 015°34'3 7.2
2017-Jun-26 02:30N 38°13' E 015°38'3 3.6
2017-Jun-26 01:37N 38°13' E 015°34'212.7
2017-Jun-26 01:28N 38°13' E 015°36'1 3.1
2017-Jun-26 01:00N 38°13' E 015°38'3 4.2
2017-Jun-26 00:17N 38°13' E 015°34'311.9
2017-Jun-26 00:00N 38°13' E 015°38'2 4.3
2017-Jun-25 23:27N 38°13' E 015°35'1 1.5
2017-Jun-25 22:55N 38°13' E 015°34'3 7.6
2017-Jun-25 22:30N 38°13' E 015°38'3 3.9
2017-Jun-25 21:40N 38°13' E 015°34'213.7
2017-Jun-25 21:30N 38°13' E 015°37'1 1.3
2017-Jun-25 21:00N 38°13' E 015°37'3 3.5
2017-Jun-25 20:17N 38°13' E 015°34'311.0
2017-Jun-25 20:00N 38°13' E 015°38'2 3.7
2017-Jun-25 19:30N 38°12' E 015°36'1 2.6
2017-Jun-25 18:58N 38°13' E 015°34'3 6.8
2017-Jun-25 18:30N 38°13' E 015°38'3 3.8
2017-Jun-25 17:38N 38°13' E 015°34'211.6
2017-Jun-25 17:30N 38°13' E 015°36'2 3.2
2017-Jun-25 17:00N 38°13' E 015°38'3 4.5
2017-Jun-25 16:18N 38°13' E 015°34'310.7
2017-Jun-25 16:00N 38°13' E 015°38'2 3.7
2017-Jun-25 15:30N 38°12' E 015°36'1 2.5
2017-Jun-25 14:57N 38°13' E 015°34'3 7.2
2017-Jun-25 14:30N 38°13' E 015°38'3 1.4
2017-Jun-25 12:17N 38°13' E 015°34'311.6
2017-Jun-25 12:00N 38°13' E 015°38'2 3.8
2017-Jun-25 11:30N 38°13' E 015°36'1 1.7
2017-Jun-25 10:53N 38°13' E 015°34'3 7.3
2017-Jun-25 10:30N 38°13' E 015°38'3 3.6
2017-Jun-25 09:37N 38°13' E 015°34'214.6
2017-Jun-25 09:30N 38°13' E 015°36'1 2.1
2017-Jun-25 09:00N 38°13' E 015°37'2 3.4
2017-Jun-25 08:17N 38°13' E 015°34'311.5
2017-Jun-25 08:01N 38°13' E 015°38'2 3.8
2017-Jun-25 07:30N 38°12' E 015°36'2 2.9
2017-Jun-25 06:59N 38°13' E 015°34'3 6.7
2017-Jun-25 06:30N 38°13' E 015°38'3 3.9
2017-Jun-25 05:40N 38°13' E 015°34'211.6
2017-Jun-25 05:29N 38°13' E 015°36'1 2.1
2017-Jun-25 05:00N 38°13' E 015°38'3 4.6
2017-Jun-25 04:21N 38°13' E 015°34'3 9.7
2017-Jun-25 04:00N 38°13' E 015°38'3 4.6
2017-Jun-25 03:26N 38°13' E 015°35'1 1.3
2017-Jun-25 02:58N 38°13' E 015°34'3 6.8
2017-Jun-25 02:30N 38°13' E 015°38'3 3.9
2017-Jun-25 01:39N 38°13' E 015°34'212.2
2017-Jun-25 01:30N 38°14' E 015°36'2 3.4
2017-Jun-25 01:00N 38°13' E 015°38'3 4.0
2017-Jun-25 00:15N 38°13' E 015°34'313.4
2017-Jun-25 00:00N 38°13' E 015°38'3 2.4
2017-Jun-24 22:52N 38°13' E 015°34'3 7.3
2017-Jun-24 22:30N 38°13' E 015°38'3 3.3
2017-Jun-24 21:34N 38°13' E 015°34'115.9
2017-Jun-24 21:30N 38°13' E 015°35'2 3.1
2017-Jun-24 21:00N 38°13' E 015°37'3 5.7
2017-Jun-24 20:30N 38°13' E 015°34'3 6.7
2017-Jun-24 20:00N 38°13' E 015°38'2 3.3
2017-Jun-24 19:30N 38°13' E 015°36'2 3.6
2017-Jun-24 19:00N 38°13' E 015°34'3 6.7
2017-Jun-24 18:30N 38°13' E 015°38'3 6.7
2017-Jun-24 18:00N 38°13' E 015°34'2 3.5
2017-Jun-24 17:30N 38°13' E 015°36'2 3.1
2017-Jun-24 17:00N 38°13' E 015°38'3 6.6
2017-Jun-24 16:30N 38°13' E 015°34'3 6.8
2017-Jun-24 16:00N 38°13' E 015°38'2 3.6
2017-Jun-24 15:30N 38°12' E 015°36'1 3.0
2017-Jun-24 15:00N 38°13' E 015°34'0 0.3
2017-Jun-24 14:00N 38°13' E 015°34'1 3.0
2017-Jun-24 13:30N 38°13' E 015°36'2 3.6
2017-Jun-24 13:00N 38°13' E 015°38'3 6.6
2017-Jun-24 12:30N 38°13' E 015°34'3 6.7
2017-Jun-24 12:00N 38°13' E 015°38'2 3.5
2017-Jun-24 11:30N 38°13' E 015°36'2 3.3
2017-Jun-24 11:00N 38°13' E 015°34'3 6.7
2017-Jun-24 10:30N 38°13' E 015°38'3 6.5
2017-Jun-24 10:00N 38°13' E 015°34'1 2.4
2017-Jun-24 09:30N 38°13' E 015°35'2 3.4
2017-Jun-24 09:00N 38°13' E 015°37'3 5.9
2017-Jun-24 08:31N 38°13' E 015°34'3 6.7
2017-Jun-24 08:01N 38°13' E 015°38'2 4.0
2017-Jun-24 07:31N 38°12' E 015°36'2 3.0
2017-Jun-24 07:01N 38°13' E 015°34'3 6.7
2017-Jun-24 06:30N 38°13' E 015°38'3 6.7
2017-Jun-24 06:00N 38°13' E 015°34'2 3.3
2017-Jun-24 05:31N 38°13' E 015°36'2 3.4
2017-Jun-24 05:01N 38°13' E 015°38'3 6.6
2017-Jun-24 04:31N 38°13' E 015°34'3 6.7
2017-Jun-24 04:01N 38°13' E 015°38'2 3.2
2017-Jun-24 03:30N 38°13' E 015°36'2 2.9
2017-Jun-24 02:59N 38°13' E 015°34'3 6.7
2017-Jun-24 02:31N 38°13' E 015°38'3 3.5
2017-Jun-24 01:37N 38°13' E 015°34'212.2
2017-Jun-24 01:29N 38°13' E 015°36'2 3.3
2017-Jun-24 01:01N 38°13' E 015°38'3 3.9
2017-Jun-24 00:17N 38°13' E 015°34'310.5
2017-Jun-24 00:00N 38°13' E 015°38'2 3.9
2017-Jun-23 23:30N 38°12' E 015°36'1 2.5
2017-Jun-23 22:56N 38°13' E 015°34'3 7.7
2017-Jun-23 22:30N 38°13' E 015°38'3 3.3
2017-Jun-23 21:35N 38°13' E 015°34'115.5
2017-Jun-23 21:30N 38°13' E 015°35'2 3.1
2017-Jun-23 21:00N 38°13' E 015°37'3 3.5
2017-Jun-23 20:15N 38°13' E 015°34'312.6
2017-Jun-23 20:00N 38°13' E 015°38'2 3.8
2017-Jun-23 19:30N 38°12' E 015°36'1 2.3
2017-Jun-23 18:57N 38°13' E 015°34'3 6.8
2017-Jun-23 18:30N 38°13' E 015°38'3 3.3
2017-Jun-23 17:36N 38°13' E 015°34'112.8
2017-Jun-23 17:30N 38°13' E 015°36'2 3.2
2017-Jun-23 17:00N 38°13' E 015°38'3 3.9
2017-Jun-23 16:18N 38°13' E 015°34'310.1
2017-Jun-23 16:00N 38°13' E 015°38'2 4.3
2017-Jun-23 15:30N 38°13' E 015°35'1 1.5
2017-Jun-23 14:58N 38°13' E 015°34'0 0.2
2017-Jun-23 13:36N 38°13' E 015°34'211.9
2017-Jun-23 13:28N 38°13' E 015°36'1 2.6
2017-Jun-23 13:00N 38°13' E 015°38'3 3.7
2017-Jun-23 12:17N 38°13' E 015°34'310.1
2017-Jun-23 12:00N 38°13' E 015°38'3 4.8
2017-Jun-23 11:28N 38°12' E 015°35'1 1.1
2017-Jun-23 10:56N 38°13' E 015°34'3 6.6
2017-Jun-23 10:30N 38°13' E 015°38'3 3.6
2017-Jun-23 09:38N 38°13' E 015°34'212.9
2017-Jun-23 09:30N 38°13' E 015°36'1 2.4
2017-Jun-23 09:00N 38°13' E 015°38'3 0.4
2017-Jun-23 01:24N 38°13' E 015°34'3 7.3
2017-Jun-23 01:00N 38°13' E 015°38'3 4.1
2017-Jun-23 00:17N 38°13' E 015°34'310.9
2017-Jun-23 00:00N 38°13' E 015°38'2 4.0
2017-Jun-22 23:30N 38°12' E 015°36'1 2.9
2017-Jun-22 22:59N 38°13' E 015°34'3 6.7
2017-Jun-22 22:30N 38°13' E 015°38'3 3.3
2017-Jun-22 21:36N 38°13' E 015°34'115.5
2017-Jun-22 21:30N 38°13' E 015°36'1 2.9
2017-Jun-22 21:00N 38°13' E 015°38'3 4.0
2017-Jun-22 20:18N 38°13' E 015°34'3 9.5
2017-Jun-22 20:00N 38°13' E 015°38'2 4.1
2017-Jun-22 19:30N 38°12' E 015°36'1 2.3
2017-Jun-22 18:57N 38°13' E 015°34'3 7.0
2017-Jun-22 18:31N 38°13' E 015°38'3 3.1
2017-Jun-22 17:35N 38°13' E 015°34'212.3
2017-Jun-22 17:24N 38°13' E 015°37'1 1.3
2017-Jun-22 17:00N 38°13' E 015°38'3 3.7
2017-Jun-22 16:15N 38°13' E 015°34'311.6
2017-Jun-22 16:00N 38°13' E 015°38'2 3.4
2017-Jun-22 15:30N 38°13' E 015°36'1 2.3
2017-Jun-22 14:58N 38°13' E 015°34'3 6.3
2017-Jun-22 14:30N 38°13' E 015°38'1 0.7
2017-Jun-22 13:25N 38°13' E 015°37'1 1.6
2017-Jun-22 13:00N 38°13' E 015°38'3 4.0
2017-Jun-22 12:17N 38°13' E 015°34'310.5
2017-Jun-22 12:01N 38°13' E 015°38'2 4.5
2017-Jun-22 11:28N 38°13' E 015°35'1 1.4
2017-Jun-22 10:58N 38°13' E 015°34'3 6.7
2017-Jun-22 10:30N 38°13' E 015°38'3 3.4
2017-Jun-22 09:36N 38°13' E 015°34'113.1
2017-Jun-22 09:30N 38°13' E 015°35'2 3.4
2017-Jun-22 09:00N 38°13' E 015°38'3 3.7
2017-Jun-22 08:15N 38°13' E 015°34'312.1
2017-Jun-22 08:00N 38°13' E 015°38'3 4.5
2017-Jun-22 07:27N 38°13' E 015°35'1 1.4
2017-Jun-22 06:57N 38°13' E 015°34'3 7.1
2017-Jun-22 06:30N 38°13' E 015°38'3 2.9
2017-Jun-22 05:37N 38°13' E 015°35'112.9
2017-Jun-22 05:30N 38°13' E 015°36'1 2.5
2017-Jun-22 05:00N 38°13' E 015°38'2 3.1
2017-Jun-22 04:14N 38°13' E 015°35'210.9
2017-Jun-22 04:00N 38°13' E 015°38'2 2.1
2017-Jun-22 02:55N 38°13' E 015°35'2 5.5
2017-Jun-22 02:30N 38°13' E 015°38'3 3.2
2017-Jun-22 01:37N 38°13' E 015°34'212.2
2017-Jun-22 01:28N 38°13' E 015°36'1 2.4
2017-Jun-22 01:00N 38°13' E 015°38'3 4.0
2017-Jun-22 00:18N 38°13' E 015°34'3 9.7
2017-Jun-22 00:00N 38°13' E 015°38'2 3.9
2017-Jun-21 23:30N 38°12' E 015°36'1 2.2
2017-Jun-21 22:56N 38°13' E 015°34'3 6.5
2017-Jun-21 22:30N 38°13' E 015°38'3 3.4
2017-Jun-21 21:36N 38°13' E 015°34'113.4
2017-Jun-21 21:30N 38°13' E 015°36'1 2.3
2017-Jun-21 20:57N 38°13' E 015°37'3 3.8
2017-Jun-21 20:16N 38°13' E 015°34'311.7
2017-Jun-21 20:00N 38°13' E 015°38'2 4.1
2017-Jun-21 19:30N 38°12' E 015°36'1 2.1
2017-Jun-21 18:56N 38°13' E 015°34'3 6.7
2017-Jun-21 18:30N 38°13' E 015°38'3 3.1
2017-Jun-21 17:36N 38°13' E 015°34'112.3
2017-Jun-21 17:30N 38°13' E 015°36'1 2.3
2017-Jun-21 17:00N 38°13' E 015°37'3 4.0
2017-Jun-21 16:19N 38°13' E 015°34'310.7
2017-Jun-21 16:00N 38°13' E 015°38'3 5.3
2017-Jun-21 15:24N 38°13' E 015°34'0 0.6
2017-Jun-21 14:58N 38°13' E 015°34'0 0.1
2017-Jun-21 13:38N 38°13' E 015°34'211.6
2017-Jun-21 13:30N 38°13' E 015°36'0 0.1
2017-Jun-21 10:49N 38°13' E 015°36'1 3.8
2017-Jun-21 10:29N 38°13' E 015°38'3 3.1
2017-Jun-21 09:35N 38°13' E 015°34'212.2
2017-Jun-21 09:26N 38°13' E 015°36'1 2.2
2017-Jun-21 09:00N 38°13' E 015°38'3 3.7
2017-Jun-21 08:15N 38°13' E 015°34'311.5
2017-Jun-21 08:00N 38°13' E 015°38'2 3.4
2017-Jun-21 07:30N 38°12' E 015°36'1 2.0
2017-Jun-21 06:54N 38°13' E 015°35'3 6.9
2017-Jun-21 06:31N 38°13' E 015°38'3 3.8
2017-Jun-21 05:40N 38°13' E 015°34'2 1.3
2017-Jun-21 04:08N 38°13' E 015°36'110.4
2017-Jun-21 04:00N 38°13' E 015°38'2 3.4
2017-Jun-21 03:30N 38°12' E 015°36'1 2.8
2017-Jun-21 02:59N 38°13' E 015°34'3 6.3
2017-Jun-21 02:30N 38°13' E 015°38'3 4.0
2017-Jun-21 01:40N 38°13' E 015°34'211.0
2017-Jun-21 01:30N 38°13' E 015°36'1 2.9
2017-Jun-21 01:00N 38°13' E 015°38'3 5.0
2017-Jun-21 00:23N 38°13' E 015°34'3 8.2
2017-Jun-21 00:01N 38°13' E 015°38'2 3.4
2017-Jun-20 23:30N 38°12' E 015°36'2 2.9
2017-Jun-20 22:57N 38°13' E 015°34'3 7.0
2017-Jun-20 22:30N 38°13' E 015°38'3 3.9
2017-Jun-20 21:40N 38°13' E 015°34'212.2
2017-Jun-20 21:28N 38°14' E 015°36'1 3.2
2017-Jun-20 21:01N 38°13' E 015°38'3 4.5
2017-Jun-20 20:18N 38°13' E 015°34'311.3
2017-Jun-20 20:01N 38°13' E 015°38'2 3.7
2017-Jun-20 19:31N 38°12' E 015°36'2 2.9
2017-Jun-20 18:59N 38°13' E 015°34'3 6.9
2017-Jun-20 18:30N 38°13' E 015°38'3 3.9
2017-Jun-20 17:40N 38°13' E 015°34'212.1
2017-Jun-20 17:30N 38°14' E 015°36'1 2.9
2017-Jun-20 17:00N 38°13' E 015°38'3 4.3
2017-Jun-20 16:16N 38°13' E 015°34'311.9
2017-Jun-20 16:00N 38°13' E 015°38'2 4.1
2017-Jun-20 15:30N 38°12' E 015°36'1 2.2
2017-Jun-20 15:00N 38°13' E 015°34'0 0.2
2017-Jun-20 13:39N 38°13' E 015°34'212.1
2017-Jun-20 13:30N 38°13' E 015°36'2 3.0
2017-Jun-20 13:00N 38°13' E 015°38'3 4.4
2017-Jun-20 12:18N 38°13' E 015°34'310.4
2017-Jun-20 12:00N 38°13' E 015°38'2 3.8
2017-Jun-20 11:30N 38°12' E 015°36'1 2.7
2017-Jun-20 10:59N 38°13' E 015°34'3 6.7
2017-Jun-20 10:30N 38°13' E 015°38'3 2.6
2017-Jun-20 09:32N 38°13' E 015°35'013.5
2017-Jun-20 09:30N 38°13' E 015°35'2 4.1
2017-Jun-20 09:00N 38°13' E 015°38'3 4.0
2017-Jun-20 08:16N 38°13' E 015°34'311.5
2017-Jun-20 08:00N 38°13' E 015°38'2 3.7
2017-Jun-20 07:30N 38°12' E 015°36'1 1.9
2017-Jun-20 06:54N 38°13' E 015°35'3 7.1
2017-Jun-20 06:30N 38°13' E 015°38'3 3.8
2017-Jun-20 05:38N 38°13' E 015°34'211.9
2017-Jun-20 05:30N 38°13' E 015°36'1 3.0
2017-Jun-20 05:00N 38°13' E 015°38'3 4.0
2017-Jun-20 04:16N 38°13' E 015°34'311.6
2017-Jun-20 04:00N 38°13' E 015°38'2 3.7
2017-Jun-20 03:30N 38°12' E 015°36'1 2.5
2017-Jun-20 02:58N 38°13' E 015°34'3 6.6
2017-Jun-20 02:30N 38°13' E 015°38'3 1.0
2017-Jun-19 23:00N 38°13' E 015°34'3 6.7
2017-Jun-19 22:30N 38°13' E 015°38'3 3.4
2017-Jun-19 21:36N 38°13' E 015°34'113.1
2017-Jun-19 21:30N 38°13' E 015°36'2 3.5
2017-Jun-19 21:00N 38°13' E 015°38'3 4.3
2017-Jun-19 20:17N 38°13' E 015°34'311.6
2017-Jun-19 20:00N 38°13' E 015°38'2 4.0
2017-Jun-19 19:30N 38°12' E 015°36'1 2.4
2017-Jun-19 18:57N 38°13' E 015°34'3 6.8
2017-Jun-19 18:30N 38°13' E 015°38'3 3.5
2017-Jun-19 17:36N 38°13' E 015°34'112.9
2017-Jun-19 17:30N 38°13' E 015°36'2 3.6
2017-Jun-19 17:00N 38°13' E 015°38'3 4.7
2017-Jun-19 16:21N 38°13' E 015°34'3 9.4
2017-Jun-19 16:00N 38°13' E 015°38'2 4.2
2017-Jun-19 15:30N 38°13' E 015°35'1 1.3
2017-Jun-19 14:55N 38°13' E 015°34'3 6.8
2017-Jun-19 14:30N 38°13' E 015°38'3 1.5
2017-Jun-19 12:43N 38°13' E 015°34'2 8.5
2017-Jun-19 12:29N 38°13' E 015°37'1 1.6
2017-Jun-19 11:58N 38°13' E 015°38'3 0.6
2017-Jun-19 06:47N 38°13' E 015°34'0 0.8
2017-Jun-19 06:30N 38°12' E 015°34'0 0.0
2017-Jun-19 05:11N 38°12' E 015°34'0 0.0
2017-Jun-19 04:59N 38°12' E 015°34'0 0.0
2017-Jun-19 04:29N 38°12' E 015°34'0 0.0
2017-Jun-19 03:59N 38°12' E 015°34'0 0.0
2017-Jun-19 03:29N 38°12' E 015°34'0 0.0
2017-Jun-19 02:41N 38°12' E 015°34'0 0.0
2017-Jun-19 02:29N 38°12' E 015°34'0 0.0
2017-Jun-19 01:59N 38°12' E 015°34'0 0.0
2017-Jun-19 01:29N 38°12' E 015°34'0 0.0
2017-Jun-19 00:59N 38°12' E 015°34'0 0.0
2017-Jun-19 00:29N 38°12' E 015°34'0 0.0
2017-Jun-18 23:53N 38°12' E 015°34'0 0.0
2017-Jun-18 23:17N 38°12' E 015°34'0 0.0
2017-Jun-18 22:53N 38°12' E 015°34'0 0.0
2017-Jun-18 22:05N 38°12' E 015°34'0 0.0
2017-Jun-18 21:59N 38°12' E 015°34'0 0.0
2017-Jun-18 21:23N 38°12' E 015°34'  

Dump ship's entire track history